createdAt,value
2018-12-21T00:00:47.657Z,91.44
2018-12-21T00:03:16.743Z,92.01
2018-12-21T00:05:44.765Z,91.48
2018-12-21T00:08:12.797Z,91.89
2018-12-21T00:10:40.804Z,91.60
2018-12-21T00:13:09.098Z,91.08
2018-12-21T00:15:37.112Z,91.83
2018-12-21T00:18:05.002Z,91.63
2018-12-21T00:20:33.037Z,91.48
2018-12-21T00:23:01.003Z,91.71
2018-12-21T00:25:29.005Z,91.69
2018-12-21T00:27:56.942Z,91.59
2018-12-21T00:30:24.323Z,91.28
2018-12-21T00:32:57.884Z,91.91
2018-12-21T00:35:31.308Z,92.45
2018-12-21T00:38:05.638Z,91.90
2018-12-21T00:40:39.368Z,91.99
2018-12-21T00:43:18.348Z,91.70
2018-12-21T00:45:49.743Z,92.26
2018-12-21T00:48:17.658Z,92.43
2018-12-21T00:50:45.702Z,92.62
2018-12-21T00:53:13.623Z,93.16
2018-12-21T00:55:41.587Z,93.57
2018-12-21T00:58:09.537Z,93.67
2018-12-21T01:00:37.567Z,93.40
2018-12-21T01:03:06.768Z,92.73
2018-12-21T01:05:34.908Z,92.78
2018-12-21T01:08:02.903Z,93.36
2018-12-21T01:10:30.843Z,93.73
2018-12-21T01:12:58.877Z,93.36
2018-12-21T01:15:26.812Z,93.57
2018-12-21T01:17:54.933Z,93.67
2018-12-21T01:20:22.886Z,93.99
2018-12-21T01:22:51.052Z,93.71
2018-12-21T01:25:18.983Z,93.56
2018-12-21T01:27:46.963Z,93.98
2018-12-21T01:30:15.042Z,94.14
2018-12-21T01:32:43.022Z,93.71
2018-12-21T01:35:11.092Z,93.92
2018-12-21T01:37:39.083Z,93.45
2018-12-21T01:40:07.687Z,92.68
2018-12-21T01:42:35.723Z,93.02
2018-12-21T01:45:04.268Z,92.18
2018-12-21T01:47:32.292Z,92.80
2018-12-21T01:50:00.417Z,92.26
2018-12-21T01:52:28.648Z,92.34
2018-12-21T01:54:56.575Z,91.99
2018-12-21T01:57:24.558Z,91.39
2018-12-21T01:59:52.493Z,91.46
2018-12-21T02:02:20.473Z,91.11
2018-12-21T02:04:48.440Z,90.86
2018-12-21T02:07:16.463Z,91.21
2018-12-21T02:09:44.393Z,90.64
2018-12-21T02:12:12.343Z,90.73
2018-12-21T02:14:40.313Z,90.07
2018-12-21T02:17:08.238Z,90.41
2018-12-21T02:19:36.288Z,90.46
2018-12-21T02:22:04.223Z,90.34
2018-12-21T02:24:32.198Z,90.27
2018-12-21T02:27:00.214Z,89.69
2018-12-21T02:29:28.644Z,89.50
2018-12-21T02:31:56.894Z,89.65
2018-12-21T02:34:24.909Z,89.37
2018-12-21T02:36:53.525Z,89.54
2018-12-21T02:39:22.339Z,89.43
2018-12-21T02:41:51.056Z,89.40
2018-12-21T02:44:19.245Z,89.29
2018-12-21T02:46:47.375Z,89.25
2018-12-21T02:49:15.651Z,89.33
2018-12-21T02:51:43.689Z,88.93
2018-12-21T02:54:11.934Z,88.46
2018-12-21T02:56:39.909Z,87.97
2018-12-21T02:59:07.972Z,88.27
2018-12-21T03:01:36.174Z,87.74
2018-12-21T03:04:04.364Z,88.04
2018-12-21T03:06:32.920Z,87.70
2018-12-21T03:09:01.359Z,87.31
2018-12-21T03:11:29.633Z,87.28
2018-12-21T03:13:57.961Z,87.54
2018-12-21T03:16:26.020Z,87.21
2018-12-21T03:18:54.617Z,87.31
2018-12-21T03:21:22.714Z,86.37
2018-12-21T03:23:50.854Z,86.04
2018-12-21T03:26:18.750Z,86.37
2018-12-21T03:28:46.954Z,86.54
2018-12-21T03:31:15.104Z,86.08
2018-12-21T03:33:43.335Z,85.89
2018-12-21T03:36:11.553Z,85.73
2018-12-21T03:38:40.093Z,85.62
2018-12-21T03:41:08.351Z,85.21
2018-12-21T03:43:36.554Z,84.89
2018-12-21T03:46:05.019Z,84.73
2018-12-21T03:48:33.281Z,85.09
2018-12-21T03:51:01.396Z,84.78
2018-12-21T03:53:29.834Z,84.91
2018-12-21T03:55:58.125Z,84.28
2018-12-21T03:58:26.229Z,84.63
2018-12-21T04:00:58.369Z,84.87
2018-12-21T04:03:26.273Z,84.99
2018-12-21T04:05:54.279Z,84.77
2018-12-21T04:08:22.745Z,84.40
2018-12-21T04:10:51.044Z,84.46
2018-12-21T04:13:19.218Z,84.67
2018-12-21T04:15:47.224Z,85.12
2018-12-21T04:18:15.335Z,84.79
2018-12-21T04:20:44.387Z,84.59
2018-12-21T04:23:12.969Z,84.53
2018-12-21T04:25:41.419Z,84.67
2018-12-21T04:28:09.921Z,84.43
2018-12-21T04:30:38.158Z,84.61
2018-12-21T04:33:06.391Z,85.13
2018-12-21T04:35:34.593Z,85.06
2018-12-21T04:38:02.985Z,84.59
2018-12-21T04:40:30.993Z,84.65
2018-12-21T04:42:59.275Z,84.60
2018-12-21T04:45:27.883Z,84.86
2018-12-21T04:47:57.601Z,84.24
2018-12-21T04:50:25.984Z,84.02
2018-12-21T04:52:54.023Z,84.75
2018-12-21T04:55:22.291Z,84.69
2018-12-21T04:57:50.422Z,84.66
2018-12-21T05:00:29.843Z,84.50
2018-12-21T05:02:58.013Z,84.96
2018-12-21T05:05:26.914Z,84.51
2018-12-21T05:07:55.023Z,84.25
2018-12-21T05:10:23.167Z,84.27
2018-12-21T05:12:51.269Z,83.97
2018-12-21T05:15:36.539Z,84.09
2018-12-21T05:18:04.715Z,84.36
2018-12-21T05:20:32.885Z,83.77
2018-12-21T05:23:01.098Z,83.39
2018-12-21T05:25:29.239Z,84.01
2018-12-21T05:27:57.374Z,83.70
2018-12-21T05:30:25.534Z,83.23
2018-12-21T05:32:53.755Z,82.85
2018-12-21T05:35:22.109Z,82.75
2018-12-21T05:37:50.909Z,82.94
2018-12-21T05:40:19.144Z,82.74
2018-12-21T05:42:47.399Z,82.68
2018-12-21T05:45:16.319Z,82.46
2018-12-21T05:47:44.503Z,82.25
2018-12-21T05:50:12.849Z,82.46
2018-12-21T05:52:41.084Z,83.22
2018-12-21T05:55:09.044Z,83.11
2018-12-21T05:57:37.184Z,82.57
2018-12-21T06:00:07.884Z,82.62
2018-12-21T06:02:35.979Z,82.14
2018-12-21T06:05:04.376Z,82.30
2018-12-21T06:07:33.919Z,81.58
2018-12-21T06:10:04.269Z,81.98
2018-12-21T06:12:32.373Z,82.12
2018-12-21T06:15:01.614Z,83.00
2018-12-21T06:17:29.908Z,83.73
2018-12-21T06:19:58.124Z,83.68
2018-12-21T06:22:26.259Z,85.40
2018-12-21T06:24:54.253Z,85.52
2018-12-21T06:27:22.154Z,86.71
2018-12-21T06:29:50.938Z,87.06
2018-12-21T06:32:19.094Z,87.13
2018-12-21T06:34:47.029Z,87.12
2018-12-21T06:37:15.005Z,87.74
2018-12-21T06:39:43.019Z,88.66
2018-12-21T06:42:11.053Z,89.23
2018-12-21T06:44:39.000Z,89.56
2018-12-21T06:47:07.104Z,90.16
2018-12-21T06:49:36.215Z,91.25
2018-12-21T06:52:04.259Z,91.34
2018-12-21T06:54:32.214Z,92.33
2018-12-21T06:57:00.244Z,91.76
2018-12-21T06:59:28.197Z,91.19
2018-12-21T07:01:56.222Z,91.04
2018-12-21T07:04:24.138Z,91.05
2018-12-21T07:06:52.099Z,91.65
2018-12-21T07:09:20.048Z,91.46
2018-12-21T07:11:48.051Z,91.85
2018-12-21T07:14:16.001Z,90.69
2018-12-21T07:16:44.018Z,90.67
2018-12-21T07:19:11.934Z,90.30
2018-12-21T07:21:39.913Z,89.87
2018-12-21T07:24:07.869Z,88.96
2018-12-21T07:26:35.873Z,89.14
2018-12-21T07:29:03.885Z,89.22
2018-12-21T07:31:31.873Z,89.09
2018-12-21T07:33:59.818Z,88.92
2018-12-21T07:36:27.804Z,89.52
2018-12-21T07:38:55.809Z,89.56
2018-12-21T07:41:23.839Z,89.96
2018-12-21T07:43:51.854Z,90.15
2018-12-21T07:46:19.858Z,90.61
2018-12-21T07:48:47.758Z,91.03
2018-12-21T07:51:15.808Z,90.92
2018-12-21T07:53:43.744Z,91.22
2018-12-21T07:56:11.668Z,90.81
2018-12-21T07:58:39.698Z,91.26
2018-12-21T08:01:07.628Z,91.55
2018-12-21T08:03:35.677Z,91.38
2018-12-21T08:06:03.659Z,91.71
2018-12-21T08:08:31.648Z,91.57
2018-12-21T08:10:59.577Z,91.77
2018-12-21T08:13:27.618Z,91.93
2018-12-21T08:15:55.553Z,92.09
2018-12-21T08:18:24.223Z,92.47
2018-12-21T08:20:52.634Z,92.43
2018-12-21T08:23:20.597Z,92.84
2018-12-21T08:25:48.673Z,93.10
2018-12-21T08:28:16.728Z,93.82
2018-12-21T08:30:46.828Z,93.69
2018-12-21T08:33:15.823Z,93.31
2018-12-21T08:35:44.313Z,93.96
2018-12-21T08:38:12.584Z,94.27
2018-12-21T08:40:40.604Z,94.16
2018-12-21T08:43:08.692Z,93.74
2018-12-21T08:45:36.598Z,93.50
2018-12-21T08:48:04.615Z,93.64
2018-12-21T08:50:32.540Z,93.99
2018-12-21T08:53:00.581Z,93.17
2018-12-21T08:55:28.753Z,93.70
2018-12-21T08:57:56.788Z,93.43
2018-12-21T09:00:24.683Z,93.71
2018-12-21T09:02:52.935Z,93.98
2018-12-21T09:05:28.434Z,93.93
2018-12-21T09:07:59.260Z,93.29
2018-12-21T09:10:27.433Z,93.25
2018-12-21T09:15:37.768Z,93.67
2018-12-21T09:18:16.643Z,93.99
2018-12-21T09:20:52.128Z,93.86
2018-12-21T09:30:53.534Z,93.76
2018-12-21T09:48:28.822Z,91.45
2018-12-21T10:04:03.262Z,92.95
2018-12-21T10:09:34.314Z,91.74
2018-12-21T10:12:20.927Z,92.41
2018-12-21T10:23:53.927Z,93.18
2018-12-21T10:26:32.647Z,93.23
2018-12-21T10:29:04.157Z,93.33
2018-12-21T10:31:35.727Z,93.24
2018-12-21T10:34:05.981Z,94.15
2018-12-21T10:36:37.497Z,94.07
2018-12-21T10:39:11.576Z,94.02
2018-12-21T10:41:39.547Z,94.15
2018-12-21T10:44:23.121Z,93.98
2018-12-21T10:46:51.065Z,94.43
2018-12-21T10:49:19.031Z,94.41
2018-12-21T10:51:47.172Z,94.57
2018-12-21T10:54:15.467Z,94.61
2018-12-21T10:56:44.303Z,96.50
2018-12-21T10:59:20.944Z,97.24
2018-12-21T11:01:44.052Z,97.14
2018-12-21T11:04:12.150Z,96.68
2018-12-21T11:09:54.882Z,95.31
2018-12-21T11:12:26.191Z,95.21
2018-12-21T11:16:08.817Z,94.67
2018-12-21T11:21:29.397Z,95.42
2018-12-21T11:23:57.311Z,95.50
2018-12-21T11:26:25.437Z,95.38
2018-12-21T11:28:54.521Z,94.98
2018-12-21T11:31:22.631Z,95.55
2018-12-21T11:33:50.547Z,95.96
2018-12-21T11:36:18.547Z,95.81
2018-12-21T11:38:46.511Z,95.87
2018-12-21T11:41:14.606Z,95.66
2018-12-21T11:43:42.593Z,95.81
2018-12-21T11:46:12.273Z,96.30
2018-12-21T11:48:40.317Z,96.10
2018-12-21T11:51:08.524Z,96.06
2018-12-21T11:53:40.092Z,95.86
2018-12-21T11:56:08.180Z,95.83
2018-12-21T11:58:36.154Z,95.87
2018-12-21T12:01:04.573Z,95.74
2018-12-21T12:03:32.572Z,95.50
2018-12-21T12:06:00.907Z,95.42
2018-12-21T12:08:28.917Z,95.84
2018-12-21T12:10:57.002Z,96.11
2018-12-21T12:13:25.010Z,96.46
2018-12-21T12:15:53.018Z,95.96
2018-12-21T12:18:21.026Z,96.20
2018-12-21T12:20:48.989Z,96.07
2018-12-21T12:23:16.986Z,96.11
2018-12-21T12:25:44.991Z,95.68
2018-12-21T12:28:13.081Z,96.04
2018-12-21T12:30:41.197Z,95.89
2018-12-21T12:33:09.262Z,95.95
2018-12-21T12:35:37.433Z,95.80
2018-12-21T12:38:05.803Z,96.30
2018-12-21T12:40:34.661Z,96.21
2018-12-21T12:43:02.967Z,95.99
2018-12-21T12:45:35.762Z,96.29
2018-12-21T12:48:04.212Z,96.18
2018-12-21T12:50:32.868Z,96.01
2018-12-21T12:53:04.627Z,95.85
2018-12-21T12:58:24.390Z,95.61
2018-12-21T13:00:52.587Z,95.80
2018-12-21T13:07:02.232Z,95.97
2018-12-21T13:09:34.972Z,95.94
2018-12-21T13:12:05.669Z,96.00
2018-12-21T13:14:33.972Z,96.34
2018-12-21T13:30:21.314Z,96.75
2018-12-21T13:52:13.299Z,97.07
2018-12-21T13:57:20.132Z,97.08
2018-12-21T13:59:49.063Z,97.11
2018-12-21T14:02:17.109Z,96.97
2018-12-21T14:04:55.303Z,96.95
2018-12-21T14:07:24.911Z,96.66
2018-12-21T14:09:53.142Z,97.16
2018-12-21T14:12:27.523Z,97.31
2018-12-21T14:14:55.832Z,97.15
2018-12-21T14:17:23.907Z,97.19
2018-12-21T14:19:51.942Z,97.59
2018-12-21T14:22:20.129Z,97.16
2018-12-21T14:24:48.266Z,97.51
2018-12-21T14:27:17.309Z,97.48
2018-12-21T14:29:45.394Z,97.16
2018-12-21T14:32:13.639Z,96.83
2018-12-21T14:34:41.622Z,97.02
2018-12-21T14:37:09.757Z,97.03
2018-12-21T14:39:37.833Z,97.02
2018-12-21T14:42:05.907Z,97.28
2018-12-21T14:44:34.099Z,96.51
2018-12-21T14:47:02.157Z,96.89
2018-12-21T14:49:30.322Z,95.83
2018-12-21T14:51:58.467Z,96.24
2018-12-21T14:54:26.467Z,95.48
2018-12-21T14:56:55.583Z,94.37
2018-12-21T14:59:23.692Z,93.90
2018-12-21T15:01:51.683Z,94.05
2018-12-21T15:04:19.802Z,94.27
2018-12-21T15:06:47.854Z,93.96
2018-12-21T15:09:15.873Z,93.34
2018-12-21T15:11:43.942Z,93.25
2018-12-21T15:14:11.974Z,93.25
2018-12-21T15:16:40.580Z,92.87
2018-12-21T15:19:10.334Z,91.78
2018-12-21T15:21:38.398Z,90.03
2018-12-21T15:24:06.427Z,90.90
2018-12-21T15:26:35.487Z,91.12
2018-12-21T15:29:03.482Z,91.46
2018-12-21T15:31:31.587Z,91.85
2018-12-21T15:33:59.682Z,91.21
2018-12-21T15:36:28.505Z,90.87
2018-12-21T15:38:56.498Z,90.75
2018-12-21T15:41:24.568Z,90.71
2018-12-21T15:43:52.529Z,89.30
2018-12-21T15:46:20.937Z,88.75
2018-12-21T15:48:49.199Z,88.24
2018-12-21T15:51:17.363Z,88.73
2018-12-21T15:53:45.340Z,88.47
2018-12-21T15:56:13.357Z,87.56
2018-12-21T15:58:41.278Z,87.70
2018-12-21T16:01:09.859Z,88.38
2018-12-21T16:03:38.134Z,87.74
2018-12-21T16:06:06.203Z,88.15
2018-12-21T16:08:34.663Z,87.17
2018-12-21T16:11:02.677Z,87.61
2018-12-21T16:13:30.692Z,87.18
2018-12-21T16:15:58.688Z,86.61
2018-12-21T16:18:26.630Z,85.36
2018-12-21T16:20:54.704Z,83.43
2018-12-21T16:23:22.653Z,82.63
2018-12-21T16:25:50.713Z,82.16
2018-12-21T16:28:18.793Z,81.44
2018-12-21T16:30:47.114Z,81.71
2018-12-21T16:33:15.087Z,81.27
2018-12-21T16:35:43.128Z,81.28
2018-12-21T16:38:11.256Z,81.53
2018-12-21T16:40:39.343Z,81.45
2018-12-21T16:43:07.635Z,80.82
2018-12-21T16:45:35.747Z,80.23
2018-12-21T16:48:03.827Z,79.03
2018-12-21T16:50:31.729Z,79.61
2018-12-21T16:52:59.827Z,78.85
2018-12-21T16:55:27.943Z,78.68
2018-12-21T16:57:55.927Z,78.27
2018-12-21T17:00:24.543Z,78.27
2018-12-21T17:02:52.605Z,77.96
2018-12-21T17:05:24.797Z,77.40
2018-12-21T17:07:52.909Z,77.84
2018-12-21T17:10:22.928Z,76.74
2018-12-21T17:12:51.028Z,76.49
2018-12-21T17:15:19.022Z,76.93
2018-12-21T17:17:47.060Z,77.21
2018-12-21T17:20:15.349Z,77.44
2018-12-21T17:22:43.409Z,77.43
2018-12-21T17:25:13.417Z,77.77
2018-12-21T17:27:41.577Z,78.22
2018-12-21T17:30:11.515Z,79.94
2018-12-21T17:32:40.450Z,80.88
2018-12-21T17:35:09.287Z,80.15
2018-12-21T17:37:38.168Z,80.85
2018-12-21T17:40:08.612Z,79.84
2018-12-21T17:42:36.814Z,80.47
2018-12-21T17:45:06.013Z,80.80
2018-12-21T17:47:34.098Z,80.24
2018-12-21T17:50:02.113Z,81.05
2018-12-21T17:52:30.270Z,81.35
2018-12-21T17:54:58.278Z,81.12
2018-12-21T17:57:26.287Z,81.20
2018-12-21T17:59:54.258Z,81.10
2018-12-21T18:02:22.348Z,79.61
2018-12-21T18:04:54.535Z,79.71
2018-12-21T18:07:31.873Z,80.37
2018-12-21T18:12:38.432Z,78.87
2018-12-21T18:15:25.574Z,79.95
2018-12-21T18:17:55.323Z,81.15
2018-12-21T18:20:26.313Z,82.37
2018-12-21T18:22:55.862Z,83.01
2018-12-21T18:25:27.428Z,83.50
2018-12-21T18:27:58.883Z,84.75
2018-12-21T18:30:37.818Z,85.36
2018-12-21T18:33:10.859Z,86.74
2018-12-21T18:35:39.748Z,86.25
2018-12-21T18:38:12.264Z,85.67
2018-12-21T18:40:40.749Z,85.44
2018-12-21T18:43:09.483Z,85.70
2018-12-21T18:45:37.900Z,85.57
2018-12-21T18:48:06.325Z,85.29
2018-12-21T18:50:35.408Z,86.39
2018-12-21T18:53:03.890Z,86.15
2018-12-21T18:55:32.154Z,86.76
2018-12-21T18:58:00.691Z,86.68
2018-12-21T19:03:42.337Z,86.40
2018-12-21T19:11:47.117Z,86.27
2018-12-21T19:14:21.112Z,86.10
2018-12-21T19:16:53.751Z,86.12
2018-12-21T19:19:24.034Z,85.84
2018-12-21T19:21:53.131Z,85.76
2018-12-21T19:24:22.626Z,85.25
2018-12-21T19:26:55.819Z,84.89
2018-12-21T19:29:26.981Z,85.29
2018-12-21T19:32:00.001Z,85.37
2018-12-21T19:34:32.376Z,85.35
2018-12-21T19:37:01.727Z,85.14
2018-12-21T19:39:30.773Z,85.43
2018-12-21T19:42:01.016Z,85.19
2018-12-21T19:44:34.786Z,85.68
2018-12-21T19:47:06.702Z,86.44
2018-12-21T19:57:05.427Z,86.75
2018-12-21T20:02:16.356Z,88.89
2018-12-21T20:04:46.915Z,89.14
2018-12-21T20:07:15.395Z,89.52
2018-12-21T20:09:44.150Z,90.10
2018-12-21T20:12:12.770Z,90.37
2018-12-21T20:14:41.645Z,89.84
2018-12-21T20:17:10.180Z,90.16
2018-12-21T20:19:52.625Z,89.50
2018-12-21T20:22:22.132Z,90.24
2018-12-21T20:24:52.855Z,89.71
2018-12-21T20:27:21.435Z,89.65
2018-12-21T20:29:50.255Z,88.92
2018-12-21T20:32:22.027Z,88.70
2018-12-21T20:34:54.660Z,88.46
2018-12-21T20:37:23.332Z,88.61
2018-12-21T20:39:51.860Z,88.38
2018-12-21T20:42:20.453Z,88.11
2018-12-21T20:44:49.017Z,87.79
2018-12-21T20:47:18.045Z,87.63
2018-12-21T20:49:47.681Z,86.89
2018-12-21T20:52:17.094Z,87.39
2018-12-21T20:54:45.644Z,87.15
2018-12-21T20:57:21.915Z,87.06
2018-12-21T20:59:46.304Z,86.94
2018-12-21T21:02:14.652Z,87.01
2018-12-21T21:04:43.150Z,87.40
2018-12-21T21:07:11.629Z,88.31
2018-12-21T21:09:40.079Z,87.78
2018-12-21T21:12:08.884Z,87.82
2018-12-21T21:14:37.474Z,87.97
2018-12-21T21:17:05.999Z,87.94
2018-12-21T21:19:38.214Z,88.30
2018-12-21T21:22:06.954Z,89.01
2018-12-21T21:24:35.274Z,89.62
2018-12-21T21:29:50.318Z,90.31
2018-12-21T21:32:24.219Z,91.03
2018-12-21T21:34:53.309Z,91.02
2018-12-21T21:37:21.903Z,91.05
2018-12-21T21:39:50.944Z,91.40
2018-12-21T21:42:20.004Z,91.58
2018-12-21T21:44:48.058Z,91.52
2018-12-21T21:47:16.122Z,91.95
2018-12-21T21:49:44.169Z,92.57
2018-12-21T21:52:12.449Z,92.03
2018-12-21T21:54:40.808Z,92.01
2018-12-21T21:57:10.109Z,91.93
2018-12-21T21:59:41.504Z,90.45
2018-12-21T22:02:12.628Z,90.29
2018-12-21T22:04:41.543Z,90.32
2018-12-21T22:07:11.818Z,90.16
2018-12-21T22:09:40.404Z,90.02
2018-12-21T22:12:08.423Z,90.40
2018-12-21T22:14:36.528Z,90.60
2018-12-21T22:17:04.886Z,90.57
2018-12-21T22:19:34.304Z,89.63
2018-12-21T22:22:02.313Z,89.96
2018-12-21T22:24:33.000Z,89.47
2018-12-21T22:27:01.008Z,89.19
2018-12-21T22:29:32.407Z,88.91
2018-12-21T22:32:12.787Z,88.35
2018-12-21T22:34:46.672Z,88.28
2018-12-21T22:37:22.777Z,88.23
2018-12-21T22:39:53.307Z,87.64
2018-12-21T23:02:46.127Z,86.67
2018-12-21T23:10:13.311Z,86.64
2018-12-21T23:12:41.312Z,86.34
2018-12-21T23:15:10.711Z,86.33
2018-12-21T23:17:39.076Z,86.09
2018-12-21T23:20:07.218Z,85.54
2018-12-21T23:22:35.891Z,85.00
2018-12-21T23:25:04.876Z,85.26
2018-12-21T23:27:33.119Z,84.76
2018-12-21T23:30:01.256Z,84.73
2018-12-21T23:32:29.417Z,84.78
2018-12-21T23:34:57.426Z,83.99
2018-12-21T23:37:25.493Z,84.08
2018-12-21T23:39:53.512Z,83.68
2018-12-21T23:42:21.756Z,83.81
2018-12-21T23:44:51.471Z,83.92
2018-12-21T23:47:20.048Z,83.23
2018-12-21T23:49:48.372Z,83.65
2018-12-21T23:52:16.622Z,83.77
2018-12-21T23:54:45.218Z,83.54
2018-12-21T23:57:13.606Z,83.59
2018-12-21T23:59:42.111Z,83.35
